• Join FlightAware (Why Join?)
  • Login
  • US Flag 
02:57PM EDT


 

Airport Tracker/Info


-or-


 

Live Flight TrackerFlight Track Log ✈ N2233X ✈ 28-Jul-2013 ✈ KDPA - KPCZ

Flight Track Log - Related Links

Times and Time Zones

All times are in EDT time to prevent confusion due to time zone crossing. See the N2233X flight status page for this flight to view local times or setup timezone preferences in your user account.

Time Position Orientation Groundspeed Altitude Reporting Facility
EDT Latitude Longitude Course Direction KTS MPH feet Rate Location/Type
03:39PM 41.9167 -88.2833 294° West 83 96 1,500  Level Chicago TRACON
03:40PM 41.9167 -88.3000 270° West 83 96 2,000 540 Climbing Chicago TRACON
03:41PM 41.9167 -88.3333 270° West 83 96 2,600 480 Climbing Chicago TRACON
03:41PM 41.9000 -88.3500 217° Southwest 100 115 3,000 420 Climbing Chicago TRACON
03:42PM 41.8833 -88.3833 236° Southwest 87 100 3,400 420 Climbing Chicago TRACON
03:43PM 41.8833 -88.4167 270° West 82 94 3,900 480 Climbing Chicago TRACON
03:44PM 41.9274 -88.4488 294° West  Level FlightAware Approximate
03:44PM 41.8833 -88.4500 270° West 87 100 4,400  Level Chicago TRACON
03:45PM 41.8833 -88.4667 270° West 85 98 4,800 420 Climbing Chicago TRACON
03:46PM 41.8667 -88.5000 236° Southwest 85 98 5,300 420 Climbing Chicago TRACON
03:47PM 41.8667 -88.5333 270° West 88 101 5,800 300 Climbing Chicago TRACON
03:49PM 41.8661 -88.5719 269° West 83 96 6,000 60 Climbing Chicago Center
03:50PM 41.8642 -88.6111 266° West 97 112 6,000  Level Chicago Center
03:51PM 41.8606 -88.6450 262° West 95 109 6,000  Level Chicago Center
03:52PM 41.8567 -88.6794 261° West 94 108 6,100  Climbing Chicago Center
03:53PM 41.8508 -88.7219 260° West 98 113 6,100 -60 Level Chicago Center
03:54PM 41.8456 -88.7606 260° West 102 117 6,000  Descending Chicago Center
03:55PM 41.8453 -88.7939 269° West 95 109 6,100  Climbing Chicago Center
03:56PM 41.8567 -88.8247 296° West 95 109 6,000 -60 Descending Chicago Center
03:57PM 41.8819 -88.8422 333° Northwest 128 147 6,000  Level Chicago Center
03:58PM 41.9103 -88.8314 16° North 108 124 6,100  Climbing Chicago Center
03:59PM 41.9442 -88.8306 North 103 119 6,000  Descending Chicago Center
04:00PM 41.9725 -88.8333 356° North 104 120 6,100  Climbing Chicago Center
04:01PM 42.0019 -88.8319 North 105 121 6,100  Level Chicago Center
04:02PM 42.0278 -88.8369 352° North 99 114 6,100  Level Chicago Center
04:03PM 42.0553 -88.8431 351° North 99 114 6,100 -60 Level Chicago Center
04:04PM 42.0872 -88.8444 358° North 98 113 6,000  Descending Chicago Center
04:05PM 42.1150 -88.8506 351° North 98 113 6,100  Climbing Chicago Center
04:06PM 42.1403 -88.8525 357° North 99 114 6,100  Level Chicago Center
04:07PM 42.1700 -88.8517 North 100 115 6,100 -60 Level Chicago Center
04:08PM 42.1994 -88.8547 356° North 103 119 6,000 -60 Descending Chicago Center
04:09PM 42.2308 -88.8561 358° North 100 115 6,000  Level Chicago Center
04:10PM 42.2572 -88.8578 357° North 98 113 6,000  Level Chicago Center
04:11PM 42.2853 -88.8608 355° North 98 113 6,000  Level Chicago Center
04:12PM 42.3114 -88.8617 359° North 96 110 6,100  Climbing Chicago Center
04:13PM 42.3389 -88.8617 360° North 97 112 6,000  Descending Chicago Center
04:14PM 42.3700 -88.8644 356° North 97 112 6,100  Climbing Chicago Center
04:16PM 42.3967 -88.8706 350° North 96 110 6,100 -60 Level Chicago Center
04:17PM 42.4250 -88.8714 359° North 99 114 6,000 -60 Descending Chicago Center
04:18PM 42.4511 -88.8722 359° North 98 113 6,000 -300 Level Chicago Center
04:19PM 42.4825 -88.8731 359° North 104 120 5,500 -540 Descending Chicago Center
04:20PM 42.5147 -88.8747 358° North 111 128 4,900 -540 Descending Chicago Center
04:21PM 42.5528 -88.8767 358° North 115 132 4,400 -420 Descending Chicago Center
04:22PM 42.5839 -88.8808 354° North 114 131 4,100 -180 Descending Chicago Center
04:23PM 42.6133 -88.8836 356° North 110 127 4,100  Level Chicago Center
04:24PM 42.6422 -88.8858 357° North 106 122 4,100 -60 Level Chicago Center
04:25PM 42.6703 -88.8908 353° North 103 119 4,000  Descending Chicago Center
04:26PM 42.7036 -88.8947 355° North 102 117 4,100  Climbing Chicago Center
04:27PM 42.7331 -88.8914 North 105 121 4,000 -60 Descending Chicago Center
04:28PM 42.7597 -88.8933 357° North 101 116 4,000  Level Chicago Center
04:29PM 42.7864 -88.8978 353° North 97 112 4,000  Level Chicago Center
04:30PM 42.8128 -88.8994 357° North 96 110 4,100  Climbing Chicago Center
04:31PM 42.8394 -88.9008 358° North 96 110 4,100 -60 Level Chicago Center
04:32PM 42.8739 -88.9031 357° North 101 116 4,000 -300 Descending Chicago Center
04:33PM 42.9061 -88.9064 356° North 109 125 3,600 -240 Descending Chicago Center
04:34PM 42.9367 -88.9092 356° North 111 128 3,600  Level Chicago Center
04:35PM 42.9653 -88.9117 356° North 107 123 3,600  Level Chicago Center
04:36PM 42.9933 -88.9142 356° North 103 119 3,600  Level Chicago Center
04:37PM 43.0256 -88.9164 357° North 101 116 3,700  Climbing Chicago Center
04:38PM 43.0533 -88.9175 358° North 99 114 3,600 -60 Descending Chicago Center
04:39PM 43.0828 -88.9203 356° North 102 117 3,600  Level Chicago Center
04:40PM 43.1131 -88.9228 357° North 105 121 3,600  Level Chicago Center
04:41PM 43.1433 -88.9256 356° North 107 123 3,600  Level Chicago Center
04:42PM 43.1719 -88.9283 356° North 106 122 3,600  Level Chicago Center
04:43PM 43.2072 -88.9292 359° North 107 123 3,600 -60 Level Chicago Center
04:44PM 43.2364 -88.9286 North 106 122 3,500 -60 Descending Chicago Center
04:46PM 43.2656 -88.9292 359° North 105 121 3,500  Level Chicago Center
04:47PM 43.2942 -88.9217 11° North 104 120 3,600 60 Climbing Chicago Center